Time;durP1;ratioP1;P1;durP2;ratioP2;P2;SDS_P1;SDS_P2;PMS_P1;PMS_P2;Temp;Humidity;BMP_temperature;BMP_pressure;BME280_temperature;BME280_humidity;BME280_pressure;Samples;Min_cycle;Max_cycle;Signal;HPM_P1;HPM_P2
2022/08/26 00:02:07;;;;;;;31.75;15.32;;;21.60;99.90;;;;;;5007177;28;20520;-89
2022/08/26 00:04:53;;;;;;;23.48;14.40;;;21.60;99.90;;;;;;4998094;28;20057;-85
2022/08/26 00:07:40;;;;;;;20.98;12.15;;;21.60;99.90;;;;;;4998209;28;20088;-84
2022/08/26 00:10:26;;;;;;;30.77;13.85;;;21.50;99.90;;;;;;4980402;28;20062;-83
2022/08/26 00:13:13;;;;;;;29.95;13.77;;;21.50;99.90;;;;;;4992997;28;20065;-82
2022/08/26 00:16:03;;;;;;;23.52;13.40;;;21.50;99.90;;;;;;4994755;28;20050;-85
2022/08/26 00:18:49;;;;;;;28.30;12.30;;;21.40;99.90;;;;;;4996717;28;20073;-88
2022/08/26 00:21:35;;;;;;;31.42;14.25;;;21.30;99.90;;;;;;4993902;28;20053;-85
2022/08/26 00:24:22;;;;;;;27.30;13.30;;;21.40;99.90;;;;;;4995889;28;20078;-87
2022/08/26 00:27:08;;;;;;;30.42;13.60;;;21.40;99.90;;;;;;4993920;28;20050;-83
2022/08/26 00:29:54;;;;;;;27.40;13.05;;;21.30;99.90;;;;;;4995765;28;20065;-82
2022/08/26 00:32:40;;;;;;;30.55;14.77;;;21.30;99.90;;;;;;4996185;28;20054;-81
2022/08/26 00:35:28;;;;;;;23.85;14.23;;;21.30;99.90;;;;;;4997021;28;20070;-82
2022/08/26 00:38:14;;;;;;;27.58;12.18;;;21.30;99.90;;;;;;4977935;28;20082;-81
2022/08/26 00:41:00;;;;;;;22.52;12.35;;;21.30;99.90;;;;;;4980384;28;20046;-84
2022/08/26 00:43:47;;;;;;;26.75;14.27;;;21.20;99.90;;;;;;4960140;28;20128;-82
2022/08/26 00:46:38;;;;;;;26.35;14.18;;;21.20;99.90;;;;;;4972868;28;20061;-79
2022/08/26 00:49:38;;;;;;;25.77;13.77;;;21.20;99.90;;;;;;4974376;28;20054;-80
2022/08/26 00:52:25;;;;;;;26.13;13.43;;;21.20;99.90;;;;;;4973116;28;20057;-80
2022/08/26 00:55:16;;;;;;;30.90;13.73;;;21.20;99.90;;;;;;4973438;28;20046;-81
2022/08/26 00:58:03;;;;;;;31.00;14.70;;;21.20;99.90;;;;;;4972974;28;20050;-79
2022/08/26 01:00:50;;;;;;;34.83;14.07;;;21.10;99.90;;;;;;4972328;28;20050;-81
2022/08/26 01:03:37;;;;;;;29.63;14.88;;;21.10;99.90;;;;;;4972849;28;20093;-82
2022/08/26 01:06:23;;;;;;;26.65;13.82;;;21.10;99.90;;;;;;4973177;28;20059;-81
2022/08/26 01:09:10;;;;;;;25.92;14.18;;;21.20;99.90;;;;;;4972631;28;20062;-81
2022/08/26 01:11:59;;;;;;;30.85;14.55;;;21.20;99.90;;;;;;4958664;28;20435;-81
2022/08/26 01:14:46;;;;;;;31.08;14.40;;;21.20;99.90;;;;;;4972649;28;20560;-82
2022/08/26 01:17:32;;;;;;;33.35;15.20;;;21.20;99.90;;;;;;4972414;28;20146;-83
2022/08/26 01:20:31;;;;;;;35.78;14.43;;;21.20;99.90;;;;;;4972804;28;20113;-81
2022/08/26 01:23:17;;;;;;;30.65;14.50;;;21.20;99.90;;;;;;4972251;28;20053;-79
2022/08/26 01:26:25;;;;;;;33.00;13.43;;;21.20;99.90;;;;;;4972002;28;20519;-79
2022/08/26 01:29:17;;;;;;;31.80;15.27;;;21.20;99.90;;;;;;4954870;28;20082;-80
2022/08/26 01:32:06;;;;;;;37.33;15.27;;;21.20;99.90;;;;;;4955302;28;20157;-81
2022/08/26 01:34:53;;;;;;;29.02;14.90;;;21.20;99.90;;;;;;4972106;28;20047;-83
2022/08/26 01:37:40;;;;;;;28.70;14.82;;;21.30;99.90;;;;;;4987243;28;20482;-83
2022/08/26 01:40:31;;;;;;;29.98;15.35;;;21.20;99.90;;;;;;4991243;28;20089;-82
2022/08/26 01:43:23;;;;;;;26.50;12.77;;;21.20;99.90;;;;;;4990050;28;20050;-82
2022/08/26 01:46:11;;;;;;;25.92;13.95;;;21.10;99.90;;;;;;4991269;28;20046;-83
2022/08/26 01:49:01;;;;;;;24.90;12.88;;;21.10;99.90;;;;;;4990261;28;20142;-81
2022/08/26 01:51:50;;;;;;;27.30;14.32;;;21.10;99.90;;;;;;4991385;28;20050;-82
2022/08/26 01:54:36;;;;;;;27.52;13.98;;;21.10;99.90;;;;;;4991513;28;20185;-80
2022/08/26 01:57:23;;;;;;;34.38;14.68;;;21.10;99.90;;;;;;4990682;28;20453;-83
2022/08/26 02:00:12;;;;;;;30.27;13.55;;;21.00;99.90;;;;;;4991185;28;20058;-80
2022/08/26 02:03:16;;;;;;;23.23;12.63;;;21.10;99.90;;;;;;4990032;28;20055;-82
2022/08/26 02:06:05;;;;;;;28.00;12.02;;;21.10;99.90;;;;;;4990223;28;20057;-83
2022/08/26 02:08:55;;;;;;;31.85;11.85;;;21.10;99.90;;;;;;4991782;28;20042;-80
2022/08/26 02:11:41;;;;;;;26.60;10.15;;;21.10;99.90;;;;;;4990627;28;20046;-80
2022/08/26 02:14:31;;;;;;;24.85;10.73;;;21.10;99.90;;;;;;5003846;28;20082;-80
2022/08/26 02:17:23;;;;;;;27.90;11.75;;;21.10;99.90;;;;;;4989563;28;20058;-80
2022/08/26 02:20:16;;;;;;;25.42;12.07;;;21.10;99.90;;;;;;4990900;28;20046;-81
2022/08/26 02:23:03;;;;;;;32.72;12.82;;;21.10;99.90;;;;;;4990645;28;20100;-79
2022/08/26 02:26:17;;;;;;;25.42;11.27;;;21.10;99.90;;;;;;4990613;28;20085;-83
2022/08/26 02:29:23;;;;;;;27.85;10.70;;;21.10;99.90;;;;;;5005735;28;20085;-79
2022/08/26 02:32:10;;;;;;;31.70;12.23;;;21.00;99.90;;;;;;4990937;28;20046;-82
2022/08/26 02:34:56;;;;;;;22.13;10.73;;;21.00;99.90;;;;;;4990908;28;20059;-81
2022/08/26 02:37:42;;;;;;;25.48;11.10;;;21.00;99.90;;;;;;4990303;28;20117;-82
2022/08/26 02:40:32;;;;;;;27.30;11.98;;;21.00;99.90;;;;;;4991156;28;20055;-81
2022/08/26 02:43:18;;;;;;;31.10;12.18;;;21.00;99.90;;;;;;4989950;28;20054;-80
2022/08/26 02:46:04;;;;;;;23.58;11.07;;;21.00;99.90;;;;;;4992259;28;20046;-78
2022/08/26 02:48:51;;;;;;;23.25;9.75;;;20.90;99.90;;;;;;4992415;28;20051;-79
2022/08/26 02:51:37;;;;;;;26.10;10.20;;;20.90;99.90;;;;;;4991045;28;20046;-79
2022/08/26 02:54:23;;;;;;;20.20;10.65;;;20.90;99.90;;;;;;4989875;28;20046;-80
2022/08/26 02:57:10;;;;;;;24.80;10.90;;;20.90;99.90;;;;;;4990663;28;20390;-78
2022/08/26 02:59:56;;;;;;;32.15;9.10;;;20.90;99.90;;;;;;4989244;28;20050;-81
2022/08/26 03:02:43;;;;;;;19.75;8.82;;;20.90;99.90;;;;;;4988919;28;20065;-80
2022/08/26 03:05:29;;;;;;;23.60;9.90;;;20.90;99.90;;;;;;4989784;28;20054;-79
2022/08/26 03:08:15;;;;;;;23.30;9.52;;;20.80;99.90;;;;;;4992956;28;20056;-79
2022/08/26 03:11:01;;;;;;;15.30;8.15;;;20.80;99.90;;;;;;4994483;28;20101;-81
2022/08/26 03:13:48;;;;;;;19.67;7.93;;;20.80;99.90;;;;;;4994419;28;20054;-83
2022/08/26 03:16:35;;;;;;;20.60;9.30;;;20.70;99.90;;;;;;4993270;28;20073;-81
2022/08/26 03:19:23;;;;;;;22.67;8.90;;;20.70;99.90;;;;;;4994282;28;20058;-83
2022/08/26 03:22:10;;;;;;;18.25;8.18;;;20.70;99.90;;;;;;4993774;28;20054;-81
2022/08/26 03:24:56;;;;;;;27.50;7.90;;;20.70;99.90;;;;;;4993173;28;20585;-79
2022/08/26 03:27:43;;;;;;;20.83;8.93;;;20.70;99.90;;;;;;4994218;28;20058;-80
2022/08/26 03:30:41;;;;;;;18.55;9.10;;;20.70;99.90;;;;;;4993557;28;20066;-82
2022/08/26 03:33:27;;;;;;;21.13;8.27;;;20.70;99.90;;;;;;4992775;28;20054;-80
2022/08/26 03:36:14;;;;;;;23.13;8.77;;;20.70;99.90;;;;;;4994052;28;20049;-81
2022/08/26 03:39:01;;;;;;;18.73;6.47;;;20.70;99.90;;;;;;4992827;28;20105;-77
2022/08/26 03:41:47;;;;;;;22.05;7.85;;;20.60;99.90;;;;;;4994307;28;20129;-79
2022/08/26 03:44:33;;;;;;;18.20;6.70;;;20.70;99.90;;;;;;4994290;28;20054;-81
2022/08/26 03:47:19;;;;;;;19.90;7.60;;;20.60;99.90;;;;;;4992597;28;20062;-77
2022/08/26 03:50:08;;;;;;;20.60;7.38;;;20.50;99.90;;;;;;4991643;28;20054;-79
2022/08/26 03:52:55;;;;;;;16.02;6.55;;;20.60;99.90;;;;;;4993010;28;20548;-79
2022/08/26 03:55:42;;;;;;;23.75;7.00;;;20.50;99.90;;;;;;4993947;28;20074;-80
2022/08/26 03:58:28;;;;;;;20.52;6.90;;;20.50;99.90;;;;;;4992935;28;20054;-80
2022/08/26 04:01:14;;;;;;;21.75;5.95;;;20.50;99.90;;;;;;4994331;28;20145;-79
2022/08/26 04:04:01;;;;;;;18.60;7.00;;;20.40;99.90;;;;;;4992745;28;20137;-80
2022/08/26 04:06:47;;;;;;;16.27;6.13;;;20.40;99.90;;;;;;4991029;28;20561;-80
2022/08/26 04:09:34;;;;;;;17.25;6.15;;;20.40;99.90;;;;;;4992847;28;20054;-83
2022/08/26 04:12:20;;;;;;;18.85;6.18;;;20.50;99.90;;;;;;4991449;28;20065;-84
2022/08/26 04:15:09;;;;;;;20.23;7.03;;;20.40;99.90;;;;;;4993607;28;20057;-81
2022/08/26 04:17:55;;;;;;;19.02;5.88;;;20.40;99.90;;;;;;4990851;28;20047;-81
2022/08/26 04:20:41;;;;;;;19.65;5.85;;;20.40;99.90;;;;;;4990994;28;20054;-83
2022/08/26 04:23:28;;;;;;;23.02;7.10;;;20.40;99.90;;;;;;4992900;28;20120;-84
2022/08/26 04:26:16;;;;;;;18.23;6.03;;;20.40;99.90;;;;;;4993595;28;20241;-82
2022/08/26 04:29:11;;;;;;;16.52;6.45;;;20.50;99.90;;;;;;4994019;28;20170;-83
2022/08/26 04:31:57;;;;;;;19.08;6.85;;;20.40;99.90;;;;;;4993390;28;20047;-80
2022/08/26 04:34:43;;;;;;;19.40;5.93;;;20.40;99.90;;;;;;4993546;28;20399;-80
2022/08/26 04:37:30;;;;;;;22.48;5.85;;;20.40;99.90;;;;;;4993273;28;20076;-80
2022/08/26 04:40:17;;;;;;;17.67;4.75;;;20.40;99.90;;;;;;4992432;28;20513;-82
2022/08/26 04:43:06;;;;;;;18.30;5.45;;;20.40;99.90;;;;;;4990929;28;20086;-80
2022/08/26 04:45:52;;;;;;;21.65;6.45;;;20.40;99.90;;;;;;4991565;28;20050;-82
2022/08/26 04:48:39;;;;;;;20.77;6.80;;;20.40;99.90;;;;;;4992257;28;20054;-81
2022/08/26 04:51:28;;;;;;;13.00;4.60;;;20.40;99.90;;;;;;4992627;28;20051;-80
2022/08/26 04:54:15;;;;;;;18.85;5.35;;;20.40;99.90;;;;;;4992131;28;20137;-80
2022/08/26 04:57:01;;;;;;;18.08;5.00;;;20.40;99.90;;;;;;4993224;28;20051;-80
2022/08/26 04:59:47;;;;;;;23.27;4.53;;;20.40;99.90;;;;;;4992750;28;20046;-81
2022/08/26 05:02:35;;;;;;;17.48;4.28;;;20.40;99.90;;;;;;4992718;28;20046;-79
2022/08/26 05:05:21;;;;;;;18.63;5.60;;;20.40;99.90;;;;;;4992466;28;20486;-82
2022/08/26 05:08:09;;;;;;;17.50;4.85;;;20.40;99.90;;;;;;5005451;28;20047;-82
2022/08/26 05:10:55;;;;;;;16.15;4.70;;;20.40;99.90;;;;;;4992187;28;20666;-79
2022/08/26 05:13:41;;;;;;;16.73;3.78;;;20.40;99.90;;;;;;4991075;28;20054;-83
2022/08/26 05:16:29;;;;;;;18.25;4.82;;;20.40;99.90;;;;;;4992071;28;20090;-83
2022/08/26 05:19:16;;;;;;;19.83;5.10;;;20.40;99.90;;;;;;4992652;28;20062;-80
2022/08/26 05:22:04;;;;;;;16.35;3.90;;;20.40;99.90;;;;;;4992710;28;20182;-80
2022/08/26 05:24:50;;;;;;;20.45;4.50;;;20.40;99.90;;;;;;4992454;28;20055;-81
2022/08/26 05:27:36;;;;;;;19.80;3.45;;;20.40;99.90;;;;;;4990958;28;20046;-79
2022/08/26 05:30:23;;;;;;;18.58;3.80;;;20.50;99.90;;;;;;4991165;28;20145;-79
2022/08/26 05:33:09;;;;;;;21.23;3.75;;;20.40;99.90;;;;;;4990374;28;20050;-78
2022/08/26 05:35:55;;;;;;;12.77;3.28;;;20.40;99.90;;;;;;4990094;28;20120;-79
2022/08/26 05:38:42;;;;;;;16.70;3.92;;;20.50;99.90;;;;;;4990928;28;20046;-80
2022/08/26 05:41:31;;;;;;;14.77;3.50;;;20.40;99.90;;;;;;4992273;28;20082;-82
2022/08/26 05:44:19;;;;;;;12.73;3.50;;;20.50;99.90;;;;;;4992240;28;20069;-81
2022/08/26 05:47:06;;;;;;;15.18;4.43;;;20.50;99.90;;;;;;4991579;28;20065;-80
2022/08/26 05:49:54;;;;;;;14.35;4.07;;;20.50;99.90;;;;;;4991552;28;20046;-79
2022/08/26 05:52:40;;;;;;;12.48;3.60;;;20.50;99.90;;;;;;4990013;28;20137;-79
2022/08/26 05:55:26;;;;;;;15.85;4.18;;;20.50;99.90;;;;;;4991497;28;20050;-80
2022/08/26 05:58:13;;;;;;;12.13;2.88;;;20.50;99.90;;;;;;4991800;28;20089;-81
2022/08/26 06:01:06;;;;;;;16.88;3.65;;;20.50;99.90;;;;;;4979295;28;20058;-82
2022/08/26 06:03:57;;;;;;;12.02;3.33;;;20.50;99.90;;;;;;4993153;28;20058;-83
2022/08/26 06:06:44;;;;;;;9.43;2.15;;;20.50;99.90;;;;;;4995014;28;20081;-81
2022/08/26 06:09:30;;;;;;;9.90;3.13;;;20.50;99.90;;;;;;4995494;28;20050;-81
2022/08/26 06:12:16;;;;;;;20.20;2.90;;;20.40;99.90;;;;;;5008189;28;20043;-80
2022/08/26 06:15:03;;;;;;;14.88;2.50;;;20.40;99.90;;;;;;4987149;28;20074;-81
2022/08/26 06:17:49;;;;;;;14.90;2.75;;;20.40;99.90;;;;;;4977896;28;20061;-82
2022/08/26 06:20:35;;;;;;;15.15;2.80;;;20.50;99.90;;;;;;4970317;28;20082;-83
2022/08/26 06:26:27;;;;;;;28.20;5.15;;;20.40;99.90;;;;;;4972733;28;20042;-79
2022/08/26 06:29:13;;;;;;;26.05;4.32;;;20.40;99.90;;;;;;4970424;28;20067;-83
2022/08/26 06:32:00;;;;;;;27.25;4.65;;;20.40;99.90;;;;;;4972539;28;20055;-82
2022/08/26 06:34:47;;;;;;;18.92;4.57;;;20.30;99.90;;;;;;4971151;28;20078;-79
2022/08/26 06:37:33;;;;;;;24.40;3.92;;;20.20;99.90;;;;;;4971367;28;20062;-82
2022/08/26 06:40:22;;;;;;;25.92;4.60;;;20.20;99.90;;;;;;4958885;28;20109;-80
2022/08/26 06:43:09;;;;;;;22.13;4.22;;;20.00;99.90;;;;;;4975654;28;20137;-84
2022/08/26 06:46:04;;;;;;;21.20;3.47;;;20.00;99.90;;;;;;4975950;28;20090;-81
2022/08/26 06:48:52;;;;;;;16.17;3.38;;;19.90;99.90;;;;;;4974699;28;20062;-79
2022/08/26 06:51:39;;;;;;;17.27;3.05;;;19.90;99.90;;;;;;4976446;28;20043;-80
2022/08/26 06:54:29;;;;;;;17.13;2.67;;;19.90;99.90;;;;;;4977961;28;20051;-81
2022/08/26 06:57:15;;;;;;;11.15;3.30;;;19.90;99.90;;;;;;4974867;28;20468;-83
2022/08/26 07:00:08;;;;;;;14.07;3.15;;;19.90;99.90;;;;;;4977363;28;20065;-82
2022/08/26 07:02:54;;;;;;;13.75;2.47;;;19.90;99.90;;;;;;4977199;28;20517;-78
2022/08/26 07:05:40;;;;;;;21.02;3.85;;;19.90;99.90;;;;;;4976465;28;20054;-83
2022/08/26 07:08:27;;;;;;;12.98;2.58;;;19.80;99.90;;;;;;4973952;28;20051;-77
2022/08/26 07:11:17;;;;;;;21.35;3.28;;;19.80;99.90;;;;;;4975895;28;20043;-80
2022/08/26 07:14:03;;;;;;;20.90;3.78;;;19.70;99.90;;;;;;4977208;28;20053;-76
2022/08/26 07:16:50;;;;;;;13.23;2.97;;;19.70;99.90;;;;;;4975200;28;20121;-81
2022/08/26 07:19:36;;;;;;;19.50;2.85;;;19.70;99.90;;;;;;4975326;28;20051;-83
2022/08/26 07:22:22;;;;;;;14.48;2.28;;;19.70;99.90;;;;;;4974898;28;20101;-84
2022/08/26 07:25:10;;;;;;;20.10;2.83;;;19.70;99.90;;;;;;4977262;28;20166;-81
2022/08/26 07:27:56;;;;;;;13.23;2.55;;;19.70;99.90;;;;;;4976884;28;20039;-81
2022/08/26 07:30:42;;;;;;;13.63;2.38;;;19.70;99.90;;;;;;4978130;28;20332;-85
2022/08/26 07:33:29;;;;;;;9.13;1.88;;;19.70;99.90;;;;;;4974247;28;20051;-81
2022/08/26 07:36:17;;;;;;;14.20;2.72;;;19.70;99.90;;;;;;4988223;28;20503;-81
2022/08/26 07:39:03;;;;;;;20.33;2.60;;;19.70;99.90;;;;;;4974588;28;20109;-79
2022/08/26 07:41:51;;;;;;;17.95;2.80;;;19.70;99.90;;;;;;4976123;28;20054;-82
2022/08/26 07:44:38;;;;;;;9.30;2.28;;;19.70;99.90;;;;;;4974354;28;20161;-86
2022/08/26 07:47:26;;;;;;;12.85;3.00;;;19.80;99.90;;;;;;4975060;28;20118;-86
2022/08/26 07:50:13;;;;;;;16.35;2.38;;;19.80;99.90;;;;;;4974223;28;20115;-81
2022/08/26 07:53:01;;;;;;;15.77;3.08;;;19.80;99.90;;;;;;4973885;28;20077;-81
2022/08/26 07:55:48;;;;;;;15.32;2.78;;;19.80;99.90;;;;;;4973098;28;20039;-83
2022/08/26 07:58:34;;;;;;;12.00;2.38;;;19.80;99.90;;;;;;4974671;28;20639;-84
2022/08/26 08:01:23;;;;;;;13.70;2.55;;;19.80;99.90;;;;;;4961934;28;20051;-90
2022/08/26 08:04:09;;;;;;;16.60;2.70;;;19.80;99.90;;;;;;4974327;28;20063;-84
2022/08/26 08:06:58;;;;;;;18.75;4.13;;;19.80;99.90;;;;;;4976103;28;20051;-82
2022/08/26 08:09:48;;;;;;;16.20;2.72;;;19.80;99.90;;;;;;4972814;28;20046;-82
2022/08/26 08:12:34;;;;;;;12.40;2.92;;;19.90;99.90;;;;;;4975930;28;20639;-85
2022/08/26 08:15:25;;;;;;;16.92;2.85;;;19.80;99.90;;;;;;4975277;28;20047;-86
2022/08/26 08:18:11;;;;;;;14.32;2.47;;;19.90;99.90;;;;;;4973013;28;20054;-85
2022/08/26 08:21:00;;;;;;;14.70;2.17;;;19.80;99.90;;;;;;4974406;28;20039;-81
2022/08/26 08:23:46;;;;;;;9.93;2.15;;;19.80;99.90;;;;;;4973984;28;20450;-85
2022/08/26 08:26:34;;;;;;;13.75;2.60;;;19.80;99.90;;;;;;4960523;28;20061;-85
2022/08/26 08:29:23;;;;;;;12.70;2.05;;;19.80;99.90;;;;;;4974333;28;20138;-84
2022/08/26 08:32:10;;;;;;;9.73;2.08;;;19.80;99.90;;;;;;4960587;28;20061;-85
2022/08/26 08:34:57;;;;;;;10.90;3.15;;;19.80;99.90;;;;;;4976145;28;20046;-88
2022/08/26 08:37:44;;;;;;;14.07;2.40;;;19.80;99.90;;;;;;4975353;28;20411;-83
2022/08/26 08:40:30;;;;;;;13.95;2.55;;;19.80;99.90;;;;;;4978056;28;20086;-89
2022/08/26 08:43:40;;;;;;;12.60;2.75;;;19.80;99.90;;;;;;4991625;28;20062;-86
2022/08/26 08:46:28;;;;;;;15.35;3.38;;;19.90;99.90;;;;;;4992907;28;20414;-85
2022/08/26 08:49:15;;;;;;;13.88;2.38;;;20.00;99.90;;;;;;4993936;28;20421;-83
2022/08/26 08:52:12;;;;;;;11.00;2.50;;;20.10;99.90;;;;;;4992829;28;20103;-86
2022/08/26 08:54:59;;;;;;;20.92;2.65;;;20.10;99.90;;;;;;5005714;28;20058;-83
2022/08/26 08:57:59;;;;;;;9.30;2.20;;;20.10;99.90;;;;;;4991579;28;20058;-85
2022/08/26 09:01:03;;;;;;;11.95;2.03;;;20.20;99.90;;;;;;4993398;28;20453;-87
2022/08/26 09:04:01;;;;;;;10.18;2.00;;;20.20;99.90;;;;;;4994190;28;20050;-81
2022/08/26 09:06:51;;;;;;;10.85;1.67;;;20.20;99.90;;;;;;4992623;28;20133;-78
2022/08/26 09:10:03;;;;;;;15.82;2.40;;;20.20;99.90;;;;;;4983732;28;20049;-84
2022/08/26 09:12:50;;;;;;;16.33;2.33;;;20.30;99.90;;;;;;4972469;28;20046;-83
2022/08/26 09:15:53;;;;;;;13.05;2.10;;;20.40;99.90;;;;;;4978967;28;20067;-87
2022/08/26 09:19:20;;;;;;;9.77;2.10;;;20.50;99.90;;;;;;4979044;28;20063;-85
2022/08/26 09:22:06;;;;;;;17.90;3.80;;;20.50;99.90;;;;;;4980635;28;20038;-80
2022/08/26 09:24:52;;;;;;;11.13;2.45;;;20.40;99.90;;;;;;4973001;28;20061;-81
2022/08/26 09:27:39;;;;;;;7.93;2.30;;;20.40;99.90;;;;;;4987435;28;20447;-83
2022/08/26 09:30:29;;;;;;;12.98;2.97;;;20.20;99.90;;;;;;4981512;28;20402;-81
2022/08/26 09:33:17;;;;;;;9.68;2.05;;;20.20;99.90;;;;;;4981546;28;20398;-80
2022/08/26 09:36:11;;;;;;;14.52;2.60;;;20.20;99.90;;;;;;4981681;28;20050;-82
2022/08/26 09:38:58;;;;;;;10.20;2.20;;;20.10;99.90;;;;;;4975032;28;20051;-82
2022/08/26 09:41:59;;;;;;;14.30;2.22;;;20.10;99.90;;;;;;4972683;28;20050;-79
2022/08/26 09:44:56;;;;;;;7.30;1.70;;;20.10;99.90;;;;;;4959549;28;20565;-79
2022/08/26 09:47:45;;;;;;;11.32;1.52;;;20.10;99.90;;;;;;4971279;28;20501;-80
2022/08/26 09:50:37;;;;;;;8.57;1.50;;;20.10;99.90;;;;;;4973329;28;20082;-82
2022/08/26 09:53:29;;;;;;;10.50;1.83;;;20.10;99.90;;;;;;4984712;28;20055;-81
2022/08/26 09:56:20;;;;;;;15.20;2.58;;;20.20;99.90;;;;;;4971936;28;20046;-82
2022/08/26 09:59:10;;;;;;;16.27;2.65;;;20.20;99.90;;;;;;4972451;28;20383;-82
2022/08/26 10:02:34;;;;;;;15.63;2.20;;;20.10;99.90;;;;;;4971393;28;20459;-81
2022/08/26 10:05:32;;;;;;;8.73;1.77;;;20.10;99.90;;;;;;4972008;28;20047;-81
2022/08/26 10:08:30;;;;;;;13.05;2.88;;;20.10;99.90;;;;;;4972042;28;20424;-83
2022/08/26 10:11:37;;;;;;;15.80;2.40;;;20.10;99.90;;;;;;4971012;28;20043;-80
2022/08/26 10:14:40;;;;;;;14.45;2.90;;;20.10;99.90;;;;;;4970631;28;20086;-83
2022/08/26 10:17:40;;;;;;;11.32;1.60;;;20.00;99.90;;;;;;4971758;28;20122;-81
2022/08/26 10:20:34;;;;;;;14.00;2.17;;;20.00;99.90;;;;;;4974575;28;20061;-81
2022/08/26 10:23:27;;;;;;;12.90;2.03;;;20.00;99.90;;;;;;4978978;28;20098;-81
2022/08/26 10:26:26;;;;;;;13.73;1.80;;;19.90;99.90;;;;;;4977176;28;20082;-82
2022/08/26 10:29:20;;;;;;;16.25;2.15;;;20.00;99.90;;;;;;4988302;28;20043;-84
2022/08/26 10:32:33;;;;;;;11.85;2.28;;;19.90;99.90;;;;;;4973234;28;20043;-82
2022/08/26 10:35:20;;;;;;;15.85;2.72;;;19.80;99.90;;;;;;4971308;28;20042;-84
2022/08/26 10:38:17;;;;;;;23.70;3.50;;;19.80;99.90;;;;;;4970924;28;20059;-82
2022/08/26 10:41:19;;;;;;;29.58;5.18;;;19.70;99.90;;;;;;4970319;28;20047;-81
2022/08/26 10:44:09;;;;;;;24.00;3.67;;;19.80;99.90;;;;;;4971424;28;20398;-80
2022/08/26 10:47:08;;;;;;;18.02;3.55;;;19.80;99.90;;;;;;4971374;28;20061;-81
2022/08/26 10:49:56;;;;;;;17.75;4.25;;;19.80;99.90;;;;;;4983427;28;20051;-82
2022/08/26 10:53:27;;;;;;;14.88;4.32;;;19.80;99.90;;;;;;4971474;28;20441;-83
2022/08/26 10:56:43;;;;;;;15.70;3.22;;;19.80;99.90;;;;;;4911717;29;20139;-82
2022/08/26 11:03:17;;;;;;;12.50;2.53;;;19.70;99.90;;;;;;4971054;28;20051;-84
2022/08/26 11:06:22;;;;;;;10.88;2.53;;;19.70;99.90;;;;;;4972003;28;20054;-82
2022/08/26 11:09:08;;;;;;;10.00;2.27;;;19.60;99.90;;;;;;4970878;28;20398;-82
2022/08/26 11:11:56;;;;;;;10.00;3.15;;;19.60;99.90;;;;;;4970508;28;20061;-86
2022/08/26 11:14:42;;;;;;;7.68;1.58;;;19.60;99.90;;;;;;4969583;28;20057;-82
2022/08/26 11:17:43;;;;;;;12.45;2.20;;;19.60;99.90;;;;;;4970947;28;20054;-83
2022/08/26 11:20:35;;;;;;;10.15;2.10;;;19.50;99.90;;;;;;4971418;28;20447;-85
2022/08/26 11:23:21;;;;;;;11.20;2.35;;;19.50;99.90;;;;;;4972476;28;20062;-83
2022/08/26 11:26:07;;;;;;;9.38;1.60;;;19.50;99.90;;;;;;4973781;28;20059;-84
2022/08/26 11:28:54;;;;;;;7.82;2.22;;;19.50;99.90;;;;;;4970327;28;20380;-81
2022/08/26 11:31:53;;;;;;;9.98;2.08;;;19.50;99.90;;;;;;4975938;28;20050;-84
2022/08/26 11:34:56;;;;;;;11.88;2.38;;;19.50;99.90;;;;;;4974108;28;20058;-84
2022/08/26 11:38:11;;;;;;;11.05;2.10;;;19.50;99.90;;;;;;4974909;28;20066;-84
2022/08/26 11:41:16;;;;;;;11.00;2.60;;;19.50;99.90;;;;;;4975124;28;20082;-84
2022/08/26 11:44:05;;;;;;;13.40;2.80;;;19.40;99.90;;;;;;4973370;28;20054;-84
2022/08/26 11:46:59;;;;;;;12.40;2.67;;;19.50;99.90;;;;;;4973947;28;20525;-84
2022/08/26 11:49:45;;;;;;;12.38;2.30;;;19.50;99.90;;;;;;4974504;28;20446;-85
2022/08/26 11:52:32;;;;;;;13.35;2.88;;;19.50;99.90;;;;;;4974809;28;20078;-85
2022/08/26 11:55:19;;;;;;;15.20;3.08;;;19.50;99.90;;;;;;4973089;28;20130;-85
2022/08/26 11:58:06;;;;;;;6.20;2.00;;;19.50;99.90;;;;;;4976011;28;20138;-82
2022/08/26 12:00:57;;;;;;;8.60;1.92;;;19.50;99.90;;;;;;4960985;28;20050;-84
2022/08/26 12:03:43;;;;;;;9.73;2.53;;;19.50;99.90;;;;;;4986969;28;20066;-83
2022/08/26 12:06:34;;;;;;;13.05;1.92;;;19.50;99.90;;;;;;4973742;28;20077;-81
2022/08/26 12:09:26;;;;;;;11.43;2.85;;;19.60;99.90;;;;;;4975513;28;20051;-83
2022/08/26 12:12:17;;;;;;;12.23;1.75;;;19.60;99.90;;;;;;4975580;28;20089;-84
2022/08/26 12:15:25;;;;;;;8.23;2.05;;;19.60;99.90;;;;;;4974712;28;20051;-82
2022/08/26 12:18:20;;;;;;;13.85;2.17;;;19.60;99.90;;;;;;4976476;28;20130;-81
2022/08/26 12:21:18;;;;;;;9.75;1.85;;;19.60;99.90;;;;;;4975734;28;20130;-81
2022/08/26 12:24:04;;;;;;;10.57;2.20;;;19.70;99.90;;;;;;4975282;28;20145;-80
2022/08/26 12:27:17;;;;;;;12.88;2.10;;;19.70;99.90;;;;;;4975447;28;20054;-83
2022/08/26 12:30:10;;;;;;;10.13;2.72;;;19.70;99.90;;;;;;4974050;28;20058;-84
2022/08/26 12:33:07;;;;;;;8.90;2.33;;;19.70;99.90;;;;;;4973534;28;20043;-84
2022/08/26 12:35:53;;;;;;;11.18;1.67;;;19.70;99.90;;;;;;4974543;28;20065;-83
2022/08/26 12:38:40;;;;;;;10.05;2.05;;;19.70;99.90;;;;;;4973870;28;20051;-81
2022/08/26 12:41:41;;;;;;;9.20;2.20;;;19.70;99.90;;;;;;4973209;28;20604;-83
2022/08/26 12:48:26;;;;;;;10.93;1.95;;;19.70;99.90;;;;;;4975689;28;20803;-82
2022/08/26 12:51:27;;;;;;;9.70;2.10;;;19.80;99.90;;;;;;4972909;28;20101;-84
2022/08/26 12:54:14;;;;;;;11.15;1.85;;;19.80;99.90;;;;;;4985064;28;20137;-84
2022/08/26 12:57:09;;;;;;;10.48;1.83;;;19.80;99.90;;;;;;4980470;28;20042;-84
2022/08/26 13:00:14;;;;;;;;;;;19.80;99.90;;;;;;4982391;28;20043;-86
2022/08/26 13:03:01;;;;;;;13.20;2.00;;;19.80;99.90;;;;;;4978003;28;19922;-84
2022/08/26 13:05:47;;;;;;;10.23;2.78;;;19.80;99.90;;;;;;4978136;28;20046;-82
2022/08/26 13:08:34;;;;;;;10.32;1.77;;;19.80;99.90;;;;;;4981325;28;20055;-84
2022/08/26 13:11:54;;;;;;;6.93;1.60;;;19.80;99.90;;;;;;4988111;28;20061;-82
2022/08/26 13:14:40;;;;;;;9.63;1.98;;;19.90;99.90;;;;;;4971647;28;20126;-87
2022/08/26 13:17:30;;;;;;;8.95;2.30;;;20.00;99.90;;;;;;4977078;28;20104;-82
2022/08/26 13:20:17;;;;;;;7.25;1.38;;;20.00;99.90;;;;;;4981979;28;20391;-84
2022/08/26 13:23:03;;;;;;;9.30;2.10;;;20.00;99.90;;;;;;4981074;28;20054;-82
2022/08/26 13:25:50;;;;;;;10.65;1.90;;;19.90;99.90;;;;;;4984780;28;20054;-85
2022/08/26 13:28:36;;;;;;;12.30;2.42;;;20.00;99.90;;;;;;4965902;28;20046;-79
2022/08/26 13:31:23;;;;;;;12.05;3.10;;;20.00;99.90;;;;;;4996665;28;20125;-89
2022/08/26 13:34:12;;;;;;;12.30;2.53;;;20.00;99.90;;;;;;4982040;28;20053;-82
2022/08/26 13:36:58;;;;;;;7.75;1.40;;;20.00;99.90;;;;;;4991246;28;20158;-81
2022/08/26 13:39:44;;;;;;;9.55;1.98;;;20.00;99.90;;;;;;4991286;28;20133;-81
2022/08/26 13:42:30;;;;;;;9.80;1.58;;;20.00;99.90;;;;;;4976075;28;20046;-79
2022/08/26 13:45:17;;;;;;;5.97;0.90;;;20.00;99.90;;;;;;4981662;28;20130;-77
2022/08/26 13:48:04;;;;;;;5.30;1.00;;;20.00;99.90;;;;;;4983387;28;20769;-77
2022/08/26 13:50:52;;;;;;;7.43;1.70;;;20.10;99.90;;;;;;4978130;28;20451;-77
2022/08/26 13:53:38;;;;;;;8.45;1.52;;;20.10;99.90;;;;;;4970151;28;20050;-78
2022/08/26 13:56:28;;;;;;;7.25;1.52;;;20.20;99.90;;;;;;4957495;28;20054;-78
2022/08/26 13:59:14;;;;;;;6.95;1.40;;;20.30;99.90;;;;;;4971290;28;20050;-79
2022/08/26 14:02:26;;;;;;;8.23;1.58;;;20.40;99.90;;;;;;4966380;28;20046;-80
2022/08/26 14:05:13;;;;;;;4.28;1.05;;;20.40;99.90;;;;;;4952228;28;20106;-81
2022/08/26 14:07:59;;;;;;;7.32;1.15;;;20.30;99.90;;;;;;4952766;29;20069;-84
2022/08/26 14:10:46;;;;;;;8.10;1.38;;;20.30;99.90;;;;;;4953555;29;20055;-84
2022/08/26 14:13:32;;;;;;;7.18;1.95;;;20.40;99.90;;;;;;4951314;29;20051;-82
2022/08/26 14:16:27;;;;;;;7.13;1.20;;;20.30;99.90;;;;;;4952562;28;20521;-82
2022/08/26 14:19:13;;;;;;;7.93;1.17;;;20.30;99.90;;;;;;4952577;28;20689;-82
2022/08/26 14:22:00;;;;;;;7.60;1.13;;;20.40;99.90;;;;;;4951369;29;20048;-78
2022/08/26 14:24:47;;;;;;;8.32;1.85;;;20.40;99.90;;;;;;4950480;29;20055;-83
2022/08/26 14:27:33;;;;;;;8.82;1.92;;;20.40;99.90;;;;;;4951474;28;20129;-82
2022/08/26 14:30:20;;;;;;;5.18;1.00;;;20.30;99.90;;;;;;4950312;29;20051;-84
2022/08/26 14:33:10;;;;;;;7.97;1.00;;;20.20;99.90;;;;;;4954039;28;20051;-87
2022/08/26 14:36:26;;;;;;;7.15;1.00;;;20.30;99.90;;;;;;4952731;28;20102;-80
2022/08/26 14:39:08;;;;;;;9.27;1.08;;;20.40;99.90;;;;;;4954122;29;20396;-88
2022/08/26 14:41:55;;;;;;;13.98;3.15;;;20.40;99.90;;;;;;4961502;28;20133;-85
2022/08/26 14:44:44;;;;;;;11.38;1.10;;;20.40;99.90;;;;;;4980684;28;20050;-89